createdAt,value
2018-10-09T00:00:10.377Z,7.72
2018-10-09T00:01:10.386Z,7.66
2018-10-09T00:02:10.360Z,7.66
2018-10-09T00:03:10.377Z,7.60
2018-10-09T00:04:10.350Z,7.66
2018-10-09T00:05:10.322Z,7.66
2018-10-09T00:06:10.303Z,7.69
2018-10-09T00:07:10.342Z,7.66
2018-10-09T00:08:10.292Z,7.70
2018-10-09T00:09:10.313Z,7.58
2018-10-09T00:10:10.295Z,7.56
2018-10-09T00:11:10.255Z,7.66
2018-10-09T00:12:10.248Z,7.69
2018-10-09T00:13:10.240Z,7.53
2018-10-09T00:14:10.259Z,7.58
2018-10-09T00:15:10.223Z,7.56
2018-10-09T00:16:10.242Z,7.56
2018-10-09T00:17:10.191Z,7.60
2018-10-09T00:18:10.182Z,7.51
2018-10-09T00:19:10.205Z,7.40
2018-10-09T00:20:10.180Z,7.36
2018-10-09T00:21:10.146Z,7.23
2018-10-09T00:22:10.148Z,7.25
2018-10-09T00:23:10.129Z,7.15
2018-10-09T00:24:10.161Z,7.15
2018-10-09T00:25:10.139Z,7.07
2018-10-09T00:26:10.167Z,7.00
2018-10-09T00:27:10.085Z,7.11
2018-10-09T00:28:10.069Z,6.99
2018-10-09T00:29:10.075Z,7.00
2018-10-09T00:30:10.083Z,6.99
2018-10-09T00:31:10.050Z,6.88
2018-10-09T00:32:10.083Z,6.87
2018-10-09T00:33:10.031Z,6.82
2018-10-09T00:34:10.038Z,6.82
2018-10-09T00:35:10.038Z,6.78
2018-10-09T00:36:10.030Z,6.82
2018-10-09T00:37:09.978Z,6.84
2018-10-09T00:38:09.997Z,6.89
2018-10-09T00:39:09.963Z,6.85
2018-10-09T00:40:09.982Z,6.87
2018-10-09T00:41:09.945Z,6.82
2018-10-09T00:42:09.928Z,6.82
2018-10-09T00:43:09.950Z,6.85
2018-10-09T00:44:09.909Z,6.84
2018-10-09T00:45:09.922Z,6.79
2018-10-09T00:46:09.897Z,6.70
2018-10-09T00:47:09.880Z,6.75
2018-10-09T00:48:09.878Z,6.70
2018-10-09T00:49:09.879Z,6.70
2018-10-09T00:50:09.879Z,6.66
2018-10-09T00:51:09.833Z,6.67
2018-10-09T00:52:09.835Z,6.67
2018-10-09T00:53:09.809Z,6.70
2018-10-09T00:54:09.807Z,6.64
2018-10-09T00:55:09.889Z,6.59
2018-10-09T00:56:09.779Z,6.52
2018-10-09T00:57:09.774Z,6.51
2018-10-09T00:58:10.581Z,6.45
2018-10-09T00:59:09.773Z,6.35
2018-10-09T01:00:09.778Z,6.35
2018-10-09T01:01:09.736Z,6.19
2018-10-09T01:02:09.755Z,6.28
2018-10-09T01:03:09.705Z,6.30
2018-10-09T01:04:09.703Z,6.19
2018-10-09T01:05:09.724Z,6.17
2018-10-09T01:06:09.721Z,6.08
2018-10-09T01:07:09.669Z,6.02
2018-10-09T01:08:09.658Z,5.97
2018-10-09T01:09:09.661Z,5.98
2018-10-09T01:10:09.667Z,5.93
2018-10-09T01:11:09.667Z,5.94
2018-10-09T01:12:09.618Z,5.91
2018-10-09T01:13:09.607Z,5.84
2018-10-09T01:14:09.599Z,5.84
2018-10-09T01:15:09.609Z,5.83
2018-10-09T01:16:09.597Z,5.73
2018-10-09T01:17:09.576Z,5.76
2018-10-09T01:18:09.548Z,5.79
2018-10-09T01:19:09.563Z,5.64
2018-10-09T01:20:09.569Z,5.65
2018-10-09T01:21:09.537Z,5.64
2018-10-09T01:22:09.518Z,5.66
2018-10-09T01:23:09.548Z,5.62
2018-10-09T01:24:09.501Z,5.64
2018-10-09T01:25:09.512Z,5.72
2018-10-09T01:26:09.484Z,5.83
2018-10-09T01:27:09.484Z,5.91
2018-10-09T01:28:09.489Z,5.94
2018-10-09T01:29:09.486Z,6.07
2018-10-09T01:30:09.487Z,6.22
2018-10-09T01:31:09.430Z,6.22
2018-10-09T01:32:09.415Z,6.38
2018-10-09T01:33:09.409Z,6.49
2018-10-09T01:34:09.436Z,6.54
2018-10-09T01:35:09.418Z,6.59
2018-10-09T01:36:09.361Z,6.63
2018-10-09T01:37:09.375Z,6.66
2018-10-09T01:38:09.362Z,6.69
2018-10-09T01:39:09.335Z,6.69
2018-10-09T01:40:09.349Z,6.69
2018-10-09T01:41:09.338Z,6.67
2018-10-09T01:42:09.299Z,6.74
2018-10-09T01:43:09.294Z,6.62
2018-10-09T01:44:09.281Z,6.70
2018-10-09T01:45:09.342Z,6.64
2018-10-09T01:46:09.265Z,6.57
2018-10-09T01:47:09.252Z,6.62
2018-10-09T01:48:09.248Z,6.52
2018-10-09T01:49:09.235Z,6.52
2018-10-09T01:50:09.278Z,6.35
2018-10-09T01:51:09.219Z,6.33
2018-10-09T01:52:09.202Z,6.27
2018-10-09T01:53:09.219Z,6.19
2018-10-09T01:54:09.178Z,6.12
2018-10-09T01:55:09.197Z,6.12
2018-10-09T01:56:09.158Z,6.04
2018-10-09T01:57:09.149Z,5.99
2018-10-09T01:58:09.145Z,5.97
2018-10-09T01:59:09.128Z,5.87
2018-10-09T02:00:09.177Z,5.82
2018-10-09T02:01:09.103Z,5.79
2018-10-09T02:02:09.114Z,5.79
2018-10-09T02:03:09.095Z,5.68
2018-10-09T02:04:09.081Z,5.64
2018-10-09T02:05:09.098Z,5.68
2018-10-09T02:06:09.056Z,5.61
2018-10-09T02:07:09.089Z,5.59
2018-10-09T02:08:09.042Z,5.62
2018-10-09T02:09:09.070Z,5.66
2018-10-09T02:10:09.038Z,5.72
2018-10-09T02:11:09.002Z,5.75
2018-10-09T02:12:09.017Z,5.80
2018-10-09T02:13:08.992Z,5.94
2018-10-09T02:14:08.985Z,5.93
2018-10-09T02:15:08.995Z,6.05
2018-10-09T02:16:08.989Z,6.01
2018-10-09T02:17:08.941Z,6.04
2018-10-09T02:18:08.964Z,6.09
2018-10-09T02:19:08.924Z,6.11
2018-10-09T02:20:08.936Z,6.08
2018-10-09T02:21:08.904Z,6.14
2018-10-09T02:22:08.905Z,6.09
2018-10-09T02:23:08.880Z,6.22
2018-10-09T02:24:08.883Z,6.14
2018-10-09T02:25:08.889Z,6.24
2018-10-09T02:26:08.853Z,6.19
2018-10-09T02:27:08.845Z,6.17
2018-10-09T02:28:08.849Z,6.31
2018-10-09T02:29:08.827Z,6.26
2018-10-09T02:30:08.850Z,6.27
2018-10-09T02:31:08.799Z,6.24
2018-10-09T02:32:08.789Z,6.30
2018-10-09T02:33:08.774Z,6.38
2018-10-09T02:34:08.775Z,6.35
2018-10-09T02:35:08.785Z,6.45
2018-10-09T02:36:08.739Z,6.49
2018-10-09T02:37:08.736Z,6.56
2018-10-09T02:38:08.751Z,6.59
2018-10-09T02:39:08.745Z,6.64
2018-10-09T02:40:08.736Z,6.66
2018-10-09T02:41:08.705Z,6.67
2018-10-09T02:42:08.687Z,6.62
2018-10-09T02:43:08.690Z,6.67
2018-10-09T02:44:08.671Z,6.78
2018-10-09T02:45:08.675Z,6.74
2018-10-09T02:46:08.648Z,6.84
2018-10-09T02:47:08.648Z,6.75
2018-10-09T02:48:08.631Z,6.81
2018-10-09T02:49:08.625Z,6.81
2018-10-09T02:50:08.643Z,6.81
2018-10-09T02:51:08.603Z,6.85
2018-10-09T02:52:08.577Z,6.82
2018-10-09T02:53:08.569Z,6.88
2018-10-09T02:54:08.557Z,6.88
2018-10-09T02:55:08.597Z,6.82
2018-10-09T02:56:08.537Z,6.82
2018-10-09T02:57:08.545Z,6.89
2018-10-09T02:58:08.526Z,6.85
2018-10-09T02:59:08.508Z,6.96
2018-10-09T03:00:08.528Z,6.92
2018-10-09T03:01:09.071Z,6.93
2018-10-09T03:02:08.502Z,7.00
2018-10-09T03:03:08.476Z,6.95
2018-10-09T03:04:08.468Z,6.97
2018-10-09T03:05:08.486Z,6.95
2018-10-09T03:06:08.443Z,6.93
2018-10-09T03:07:08.427Z,6.97
2018-10-09T03:08:08.451Z,6.93
2018-10-09T03:09:08.412Z,6.93
2018-10-09T03:10:08.457Z,6.93
2018-10-09T03:11:08.382Z,6.96
2018-10-09T03:12:08.367Z,6.95
2018-10-09T03:13:08.374Z,6.95
2018-10-09T03:14:08.359Z,6.93
2018-10-09T03:15:08.407Z,6.97
2018-10-09T03:16:08.347Z,7.00
2018-10-09T03:17:08.326Z,6.96
2018-10-09T03:18:08.328Z,6.96
2018-10-09T03:19:08.297Z,7.05
2018-10-09T03:20:08.323Z,6.97
2018-10-09T03:21:08.277Z,7.03
2018-10-09T03:22:08.294Z,7.00
2018-10-09T03:23:08.268Z,7.02
2018-10-09T03:24:08.259Z,6.99
2018-10-09T03:25:08.286Z,6.97
2018-10-09T03:26:08.226Z,6.97
2018-10-09T03:27:08.220Z,6.99
2018-10-09T03:28:08.201Z,6.97
2018-10-09T03:29:08.190Z,6.99
2018-10-09T03:30:08.218Z,7.03
2018-10-09T03:31:08.204Z,7.05
2018-10-09T03:32:08.167Z,7.05
2018-10-09T03:33:08.153Z,7.00
2018-10-09T03:34:08.166Z,7.00
2018-10-09T03:35:08.164Z,6.92
2018-10-09T03:36:08.124Z,7.00
2018-10-09T03:37:08.222Z,6.97
2018-10-09T03:38:08.108Z,7.00
2018-10-09T03:39:08.204Z,6.99
2018-10-09T03:40:08.123Z,7.02
2018-10-09T03:41:08.090Z,6.96
2018-10-09T03:42:08.059Z,6.99
2018-10-09T03:43:08.057Z,7.00
2018-10-09T03:44:08.050Z,7.07
2018-10-09T03:45:08.071Z,7.03
2018-10-09T03:46:08.028Z,6.97
2018-10-09T03:47:08.015Z,7.02
2018-10-09T03:48:08.032Z,6.97
2018-10-09T03:49:07.992Z,7.02
2018-10-09T03:50:08.010Z,7.02
2018-10-09T03:51:08.013Z,7.00
2018-10-09T03:52:08.026Z,6.99
2018-10-09T03:53:07.951Z,7.05
2018-10-09T03:54:07.965Z,7.07
2018-10-09T03:55:07.956Z,6.99
2018-10-09T03:56:07.951Z,7.03
2018-10-09T03:57:07.914Z,7.00
2018-10-09T03:58:07.919Z,7.05
2018-10-09T03:59:07.924Z,6.97
2018-10-09T04:00:07.911Z,7.02
2018-10-09T04:01:07.901Z,6.99
2018-10-09T04:02:07.844Z,7.00
2018-10-09T04:03:07.858Z,7.03
2018-10-09T04:04:07.825Z,6.97
2018-10-09T04:05:07.842Z,6.99
2018-10-09T04:06:07.811Z,7.02
2018-10-09T04:07:07.855Z,6.99
2018-10-09T04:08:07.797Z,6.95
2018-10-09T04:09:07.839Z,7.02
2018-10-09T04:10:07.826Z,6.97
2018-10-09T04:11:07.770Z,6.93
2018-10-09T04:12:07.762Z,7.02
2018-10-09T04:13:07.732Z,6.99
2018-10-09T04:14:07.735Z,6.93
2018-10-09T04:15:07.750Z,6.96
2018-10-09T04:16:07.723Z,6.99
2018-10-09T04:17:07.711Z,6.93
2018-10-09T04:18:07.696Z,6.99
2018-10-09T04:19:07.669Z,6.92
2018-10-09T04:20:07.685Z,6.89
2018-10-09T04:21:07.658Z,7.02
2018-10-09T04:22:07.656Z,6.97
2018-10-09T04:23:07.650Z,6.99
2018-10-09T04:24:07.619Z,6.95
2018-10-09T04:25:07.672Z,6.99
2018-10-09T04:26:07.600Z,6.97
2018-10-09T04:27:07.595Z,6.96
2018-10-09T04:28:07.597Z,6.93
2018-10-09T04:29:07.577Z,6.88
2018-10-09T04:30:07.603Z,6.96
2018-10-09T04:31:07.598Z,6.95
2018-10-09T04:32:07.564Z,6.95
2018-10-09T04:33:07.563Z,6.95
2018-10-09T04:34:07.565Z,6.95
2018-10-09T04:35:07.666Z,6.95
2018-10-09T04:36:07.493Z,6.95
2018-10-09T04:37:07.497Z,6.97
2018-10-09T04:38:07.500Z,6.92
2018-10-09T04:39:07.504Z,6.88
2018-10-09T04:40:07.513Z,6.82
2018-10-09T04:41:07.487Z,6.77
2018-10-09T04:42:07.453Z,6.67
2018-10-09T04:43:07.420Z,6.75
2018-10-09T04:44:07.442Z,6.67
2018-10-09T04:45:07.446Z,6.67
2018-10-09T04:46:07.400Z,6.66
2018-10-09T04:47:07.396Z,6.66
2018-10-09T04:48:07.381Z,6.63
2018-10-09T04:49:08.085Z,6.63
2018-10-09T04:50:07.400Z,6.67
2018-10-09T04:51:07.347Z,6.63
2018-10-09T04:52:07.344Z,6.72
2018-10-09T04:53:07.351Z,6.66
2018-10-09T04:54:07.325Z,6.63
2018-10-09T04:55:07.350Z,6.75
2018-10-09T04:56:07.315Z,6.72
2018-10-09T04:57:07.368Z,6.72
2018-10-09T04:58:07.280Z,6.75
2018-10-09T04:59:07.286Z,6.67
2018-10-09T05:00:07.314Z,6.66
2018-10-09T05:01:07.255Z,6.66
2018-10-09T05:02:07.243Z,6.62
2018-10-09T05:03:07.226Z,6.62
2018-10-09T05:04:07.225Z,6.59
2018-10-09T05:05:07.245Z,6.63
2018-10-09T05:06:07.196Z,6.59
2018-10-09T05:07:07.183Z,6.62
2018-10-09T05:08:07.194Z,6.74
2018-10-09T05:09:07.194Z,6.62
2018-10-09T05:10:07.197Z,6.62
2018-10-09T05:11:07.146Z,6.70
2018-10-09T05:12:07.143Z,6.74
2018-10-09T05:13:07.114Z,6.78
2018-10-09T05:14:07.099Z,6.82
2018-10-09T05:15:07.121Z,6.78
2018-10-09T05:16:07.079Z,6.85
2018-10-09T05:17:07.080Z,6.81
2018-10-09T05:18:07.080Z,6.81
2018-10-09T05:19:07.049Z,6.84
2018-10-09T05:20:07.075Z,6.89
2018-10-09T05:21:07.026Z,6.87
2018-10-09T05:22:07.019Z,6.84
2018-10-09T05:23:07.030Z,6.85
2018-10-09T05:24:07.006Z,6.99
2018-10-09T05:25:07.076Z,6.96
2018-10-09T05:26:07.013Z,6.96
2018-10-09T05:27:06.969Z,6.87
2018-10-09T05:28:06.973Z,6.92
2018-10-09T05:29:06.951Z,6.85
2018-10-09T05:30:07.046Z,6.82
2018-10-09T05:31:06.956Z,6.88
2018-10-09T05:32:06.927Z,6.87
2018-10-09T05:33:06.920Z,6.95
2018-10-09T05:34:06.918Z,6.85
2018-10-09T05:35:07.022Z,6.93
2018-10-09T05:36:06.884Z,6.95
2018-10-09T05:37:06.873Z,6.88
2018-10-09T05:38:06.865Z,6.93
2018-10-09T05:39:06.852Z,6.89
2018-10-09T05:40:06.871Z,6.87
2018-10-09T05:41:06.852Z,6.93
2018-10-09T05:42:06.821Z,6.99
2018-10-09T05:43:06.819Z,6.96
2018-10-09T05:44:06.797Z,6.93
2018-10-09T05:45:06.820Z,6.99
2018-10-09T05:46:06.777Z,6.92
2018-10-09T05:47:06.766Z,6.92
2018-10-09T05:48:06.767Z,6.99
2018-10-09T05:49:06.755Z,6.93
2018-10-09T05:50:06.763Z,6.88
2018-10-09T05:51:06.748Z,6.92
2018-10-09T05:52:06.711Z,6.97
2018-10-09T05:53:06.777Z,7.02
2018-10-09T05:54:06.703Z,6.93
2018-10-09T05:55:06.704Z,6.88
2018-10-09T05:56:06.684Z,6.99
2018-10-09T05:57:06.660Z,7.00
2018-10-09T05:58:06.731Z,7.03
2018-10-09T05:59:06.641Z,6.99
2018-10-09T06:00:06.719Z,6.95
2018-10-09T06:01:06.618Z,7.02
2018-10-09T06:02:06.629Z,7.10
2018-10-09T06:03:06.766Z,6.95
2018-10-09T06:04:06.580Z,7.07
2018-10-09T06:05:06.600Z,7.06
2018-10-09T06:06:06.589Z,7.07
2018-10-09T06:07:06.563Z,7.18
2018-10-09T06:08:06.539Z,7.14
2018-10-09T06:09:06.913Z,7.20
2018-10-09T06:10:06.656Z,7.14
2018-10-09T06:11:06.507Z,7.28
2018-10-09T06:12:06.541Z,7.29
2018-10-09T06:13:06.487Z,7.31
2018-10-09T06:14:06.478Z,7.29
2018-10-09T06:15:06.495Z,7.28
2018-10-09T06:16:06.555Z,7.23
2018-10-09T06:17:06.651Z,7.36
2018-10-09T06:18:06.436Z,7.31
2018-10-09T06:19:06.583Z,7.33
2018-10-09T06:20:06.456Z,7.33
2018-10-09T06:21:06.404Z,7.31
2018-10-09T06:22:06.455Z,7.35
2018-10-09T06:23:06.520Z,7.36
2018-10-09T06:24:06.371Z,7.31
2018-10-09T06:25:06.396Z,7.36
2018-10-09T06:26:06.358Z,7.35
2018-10-09T06:27:06.374Z,7.31
2018-10-09T06:28:06.494Z,7.29
2018-10-09T06:29:06.341Z,7.31
2018-10-09T06:30:06.377Z,7.38
2018-10-09T06:31:06.347Z,7.43
2018-10-09T06:32:06.303Z,7.40
2018-10-09T06:33:06.349Z,7.45
2018-10-09T06:34:06.403Z,7.47
2018-10-09T06:35:06.306Z,7.58
2018-10-09T06:36:06.267Z,7.58
2018-10-09T06:37:06.268Z,7.63
2018-10-09T06:38:06.240Z,7.57
2018-10-09T06:39:06.293Z,7.53
2018-10-09T06:40:06.261Z,7.57
2018-10-09T06:41:06.200Z,7.58
2018-10-09T06:42:06.330Z,7.60
2018-10-09T06:43:06.187Z,7.57
2018-10-09T06:44:06.178Z,7.66
2018-10-09T06:45:06.224Z,7.67
2018-10-09T06:46:06.180Z,7.76
2018-10-09T06:47:06.150Z,7.77
2018-10-09T06:48:06.142Z,7.77
2018-10-09T06:49:06.135Z,7.88
2018-10-09T06:50:06.152Z,7.88
2018-10-09T06:51:06.093Z,7.94
2018-10-09T06:52:06.091Z,7.91
2018-10-09T06:53:06.096Z,7.91
2018-10-09T06:54:06.258Z,7.94
2018-10-09T06:55:06.089Z,7.95
2018-10-09T06:56:06.074Z,7.97
2018-10-09T06:57:06.038Z,7.94
2018-10-09T06:58:06.057Z,7.93
2018-10-09T06:59:06.007Z,7.98
2018-10-09T07:00:06.043Z,8.01
2018-10-09T07:01:06.005Z,8.08
2018-10-09T07:02:05.972Z,8.05
2018-10-09T07:03:05.962Z,8.09
2018-10-09T07:04:05.977Z,8.15
2018-10-09T07:05:05.968Z,8.13
2018-10-09T07:06:05.929Z,8.20
2018-10-09T07:07:06.004Z,8.28
2018-10-09T07:08:05.908Z,8.27
2018-10-09T07:09:06.065Z,8.34
2018-10-09T07:10:05.914Z,8.41
2018-10-09T07:11:05.957Z,8.36
2018-10-09T07:12:05.874Z,8.44
2018-10-09T07:13:05.900Z,8.48
2018-10-09T07:14:05.886Z,8.45
2018-10-09T07:15:05.862Z,8.55
2018-10-09T07:16:05.827Z,8.52
2018-10-09T07:17:05.929Z,8.63
2018-10-09T07:18:05.818Z,8.61
2018-10-09T07:19:05.816Z,8.58
2018-10-09T07:20:05.810Z,8.64
2018-10-09T07:21:05.789Z,8.69
2018-10-09T07:22:05.798Z,8.76
2018-10-09T07:23:05.758Z,8.76
2018-10-09T07:24:05.743Z,8.74
2018-10-09T07:25:05.767Z,8.76
2018-10-09T07:26:05.719Z,8.78
2018-10-09T07:27:05.754Z,8.89
2018-10-09T07:28:05.704Z,8.95
2018-10-09T07:29:05.689Z,9.06
2018-10-09T07:30:05.710Z,9.00
2018-10-09T07:31:05.671Z,9.08
2018-10-09T07:32:05.660Z,9.14
2018-10-09T07:33:05.671Z,9.13
2018-10-09T07:34:05.640Z,9.21
2018-10-09T07:35:05.658Z,9.19
2018-10-09T07:36:05.630Z,9.23
2018-10-09T07:37:05.616Z,9.22
2018-10-09T07:38:05.601Z,9.37
2018-10-09T07:39:05.606Z,9.44
2018-10-09T07:40:05.639Z,9.41
2018-10-09T07:41:05.565Z,9.41
2018-10-09T07:42:05.568Z,9.50
2018-10-09T07:43:05.544Z,9.55
2018-10-09T07:44:05.594Z,9.58
2018-10-09T07:45:05.568Z,9.65
2018-10-09T07:46:05.524Z,9.66
2018-10-09T07:47:05.540Z,9.77
2018-10-09T07:48:05.491Z,9.87
2018-10-09T07:49:05.491Z,9.95
2018-10-09T07:50:05.495Z,9.97
2018-10-09T07:51:05.467Z,10.05
2018-10-09T07:52:05.457Z,10.05
2018-10-09T07:53:05.444Z,10.13
2018-10-09T07:54:05.431Z,10.17
2018-10-09T07:55:05.468Z,10.20
2018-10-09T07:56:05.408Z,10.22
2018-10-09T07:57:05.395Z,10.23
2018-10-09T07:58:05.388Z,10.34
2018-10-09T07:59:05.414Z,10.34
2018-10-09T08:00:05.403Z,10.38
2018-10-09T08:01:05.361Z,10.44
2018-10-09T08:02:05.378Z,10.51
2018-10-09T08:03:05.360Z,10.54
2018-10-09T08:04:05.329Z,10.59
2018-10-09T08:05:05.349Z,10.60
2018-10-09T08:06:05.305Z,10.71
2018-10-09T08:07:05.292Z,10.72
2018-10-09T08:08:05.289Z,10.76
2018-10-09T08:09:05.308Z,10.89
2018-10-09T08:10:05.291Z,10.99
2018-10-09T08:11:05.254Z,10.94
2018-10-09T08:12:05.244Z,11.04
2018-10-09T08:13:05.233Z,11.05
2018-10-09T08:14:05.216Z,11.05
2018-10-09T08:15:05.239Z,11.11
2018-10-09T08:16:05.252Z,11.07
2018-10-09T08:17:05.187Z,11.11
2018-10-09T08:18:05.183Z,11.17
2018-10-09T08:19:05.158Z,11.12
2018-10-09T08:20:05.183Z,11.11
2018-10-09T08:21:05.171Z,11.14
2018-10-09T08:22:05.138Z,11.07
2018-10-09T08:23:05.127Z,11.05
2018-10-09T08:24:05.123Z,11.04
2018-10-09T08:25:05.144Z,11.07
2018-10-09T08:26:05.092Z,10.94
2018-10-09T08:27:05.075Z,11.00
2018-10-09T08:28:05.110Z,11.00
2018-10-09T08:29:05.063Z,10.96
2018-10-09T08:30:05.112Z,10.87
2018-10-09T08:31:05.040Z,10.89
2018-10-09T08:32:05.067Z,10.93
2018-10-09T08:33:05.018Z,10.84
2018-10-09T08:34:05.004Z,10.87
2018-10-09T08:35:05.042Z,10.84
2018-10-09T08:36:04.980Z,10.78
2018-10-09T08:37:05.002Z,10.81
2018-10-09T08:38:04.966Z,10.78
2018-10-09T08:39:04.953Z,10.89
2018-10-09T08:40:04.980Z,10.87
2018-10-09T08:41:04.936Z,10.97
2018-10-09T08:42:04.934Z,10.90
2018-10-09T08:43:04.941Z,10.92
2018-10-09T08:44:04.899Z,10.89
2018-10-09T08:45:04.921Z,10.96
2018-10-09T08:46:04.933Z,10.94
2018-10-09T08:47:04.869Z,11.00
2018-10-09T08:48:04.854Z,11.07
2018-10-09T08:49:04.853Z,11.07
2018-10-09T08:50:04.876Z,11.11
2018-10-09T08:51:04.821Z,11.27
2018-10-09T08:52:04.909Z,11.32
2018-10-09T08:53:04.809Z,11.41
2018-10-09T08:54:04.793Z,11.40
2018-10-09T08:55:04.816Z,11.43
2018-10-09T08:56:04.779Z,11.59
2018-10-09T08:57:04.758Z,11.55
2018-10-09T08:58:04.774Z,11.59
2018-10-09T08:59:04.754Z,11.83
2018-10-09T09:00:04.760Z,11.75
2018-10-09T09:01:04.716Z,11.83
2018-10-09T09:02:04.703Z,11.97
2018-10-09T09:03:04.702Z,11.97
2018-10-09T09:04:04.697Z,11.91
2018-10-09T09:05:04.704Z,12.04
2018-10-09T09:06:04.677Z,12.07
2018-10-09T09:07:04.657Z,12.02
2018-10-09T09:08:04.638Z,12.13
2018-10-09T09:09:04.630Z,12.22
2018-10-09T09:10:04.707Z,12.22
2018-10-09T09:11:04.606Z,12.35
2018-10-09T09:12:04.608Z,12.39
2018-10-09T09:13:04.609Z,12.37
2018-10-09T09:14:04.723Z,12.40
2018-10-09T09:15:04.749Z,12.46
2018-10-09T09:16:04.617Z,12.47
2018-10-09T09:17:04.549Z,12.49
2018-10-09T09:18:04.596Z,12.60
2018-10-09T09:19:04.534Z,12.70
2018-10-09T09:20:04.581Z,12.70
2018-10-09T09:21:04.593Z,12.65
2018-10-09T09:22:04.499Z,12.65
2018-10-09T09:23:04.493Z,12.78
2018-10-09T09:24:04.488Z,12.68
2018-10-09T09:25:04.628Z,12.83
2018-10-09T09:26:04.505Z,12.85
2018-10-09T09:27:04.624Z,12.91
2018-10-09T09:28:04.441Z,12.97
2018-10-09T09:29:04.521Z,13.00
2018-10-09T09:30:04.456Z,13.01
2018-10-09T09:31:04.405Z,13.13
2018-10-09T09:32:04.390Z,13.15
2018-10-09T09:33:04.455Z,13.13
2018-10-09T09:34:04.374Z,13.20
2018-10-09T09:35:04.385Z,13.16
2018-10-09T09:36:04.358Z,13.22
2018-10-09T09:37:04.367Z,13.28
2018-10-09T09:38:04.329Z,13.39
2018-10-09T09:39:04.386Z,13.37
2018-10-09T09:40:04.340Z,13.46
2018-10-09T09:41:04.290Z,13.50
2018-10-09T09:42:04.284Z,13.56
2018-10-09T09:43:04.281Z,13.63
2018-10-09T09:44:04.261Z,13.65
2018-10-09T09:45:04.345Z,13.72
2018-10-09T09:46:04.312Z,13.83
2018-10-09T09:47:04.233Z,13.85
2018-10-09T09:48:04.284Z,13.90
2018-10-09T09:49:04.206Z,14.00
2018-10-09T09:50:04.230Z,14.05
2018-10-09T09:51:04.238Z,14.10
2018-10-09T09:52:04.207Z,14.12
2018-10-09T09:53:04.173Z,14.07
2018-10-09T09:54:04.160Z,14.11
2018-10-09T09:55:04.519Z,14.12
2018-10-09T09:56:04.159Z,14.12
2018-10-09T09:57:04.129Z,14.14
2018-10-09T09:58:04.227Z,14.11
2018-10-09T09:59:04.254Z,14.15
2018-10-09T10:00:04.118Z,14.22
2018-10-09T10:01:04.101Z,14.26
2018-10-09T10:02:04.075Z,14.32
2018-10-09T10:03:04.062Z,14.41
2018-10-09T10:04:04.052Z,14.53
2018-10-09T10:05:04.069Z,14.54
2018-10-09T10:06:04.036Z,14.47
2018-10-09T10:07:04.013Z,14.53
2018-10-09T10:08:04.022Z,14.59
2018-10-09T10:09:03.998Z,14.62
2018-10-09T10:10:04.011Z,14.53
2018-10-09T10:11:03.971Z,14.55
2018-10-09T10:12:03.978Z,14.69
2018-10-09T10:13:03.954Z,14.70
2018-10-09T10:14:03.971Z,14.82
2018-10-09T10:15:03.964Z,14.89
2018-10-09T10:16:03.937Z,14.89
2018-10-09T10:17:03.949Z,14.97
2018-10-09T10:18:03.908Z,15.00
2018-10-09T10:19:03.908Z,15.18
2018-10-09T10:20:03.952Z,15.31
2018-10-09T10:21:03.898Z,15.42
2018-10-09T10:22:03.929Z,15.46
2018-10-09T10:23:03.845Z,15.58
2018-10-09T10:24:03.839Z,15.54
2018-10-09T10:25:03.886Z,15.57
2018-10-09T10:26:03.812Z,15.59
2018-10-09T10:27:03.805Z,15.59
2018-10-09T10:28:03.830Z,15.51
2018-10-09T10:29:03.837Z,15.59
2018-10-09T10:30:03.812Z,15.70
2018-10-09T10:31:03.767Z,15.73
2018-10-09T10:32:03.789Z,15.88
2018-10-09T10:33:03.738Z,15.94
2018-10-09T10:34:03.739Z,15.84
2018-10-09T10:35:03.774Z,15.91
2018-10-09T10:36:03.710Z,15.88
2018-10-09T10:37:03.696Z,15.83
2018-10-09T10:38:03.706Z,15.95
2018-10-09T10:39:03.717Z,15.97
2018-10-09T10:40:03.700Z,16.05
2018-10-09T10:41:03.662Z,16.21
2018-10-09T10:42:03.689Z,16.21
2018-10-09T10:43:03.636Z,16.21
2018-10-09T10:44:03.627Z,16.23
2018-10-09T10:45:03.672Z,16.29
2018-10-09T10:46:03.604Z,16.23
2018-10-09T10:47:03.601Z,16.29
2018-10-09T10:48:03.703Z,16.35
2018-10-09T10:49:03.632Z,16.35
2018-10-09T10:50:03.600Z,16.36
2018-10-09T10:51:03.559Z,16.35
2018-10-09T10:52:03.551Z,16.42
2018-10-09T10:53:03.563Z,16.47
2018-10-09T10:54:03.542Z,16.53
2018-10-09T10:55:03.602Z,16.58
2018-10-09T10:56:03.503Z,16.66
2018-10-09T10:57:03.495Z,16.65
2018-10-09T10:58:03.491Z,16.91
2018-10-09T10:59:03.490Z,16.94
2018-10-09T11:00:03.487Z,17.08
2018-10-09T11:01:03.450Z,17.14
2018-10-09T11:02:03.481Z,17.20
2018-10-09T11:03:03.441Z,17.33
2018-10-09T11:04:03.420Z,17.48
2018-10-09T11:05:03.489Z,17.65
2018-10-09T11:06:03.394Z,17.86
2018-10-09T11:07:03.397Z,18.19
2018-10-09T11:08:03.467Z,18.70
2018-10-09T11:09:03.373Z,19.21
2018-10-09T11:10:03.433Z,19.59
2018-10-09T11:11:03.340Z,19.70
2018-10-09T11:12:03.336Z,19.85
2018-10-09T11:13:03.319Z,19.77
2018-10-09T11:14:03.317Z,19.88
2018-10-09T11:15:03.336Z,20.04
2018-10-09T11:16:03.383Z,20.10
2018-10-09T11:17:03.283Z,20.34
2018-10-09T11:18:03.270Z,20.36
2018-10-09T11:19:03.263Z,20.52
2018-10-09T11:20:03.279Z,20.62
2018-10-09T11:21:03.286Z,20.47
2018-10-09T11:22:03.220Z,20.39
2018-10-09T11:23:03.214Z,20.55
2018-10-09T11:24:03.226Z,20.69
2018-10-09T11:25:03.230Z,20.80
2018-10-09T11:26:03.193Z,20.69
2018-10-09T11:27:03.215Z,20.52
2018-10-09T11:28:03.162Z,20.25
2018-10-09T11:29:03.153Z,20.13
2018-10-09T11:30:03.184Z,19.94
2018-10-09T11:31:03.140Z,19.74
2018-10-09T11:32:03.120Z,19.49
2018-10-09T11:33:03.111Z,19.34
2018-10-09T11:34:03.110Z,19.36
2018-10-09T11:35:03.122Z,19.51
2018-10-09T11:36:03.092Z,19.64
2018-10-09T11:37:03.115Z,19.69
2018-10-09T11:38:03.063Z,19.74
2018-10-09T11:39:03.051Z,19.82
2018-10-09T11:40:03.082Z,19.96
2018-10-09T11:41:03.045Z,19.96
2018-10-09T11:42:03.020Z,19.91
2018-10-09T11:43:03.014Z,19.86
2018-10-09T11:44:03.041Z,19.73
2018-10-09T11:45:03.012Z,19.64
2018-10-09T11:46:02.974Z,19.70
2018-10-09T11:47:02.961Z,19.69
2018-10-09T11:48:02.951Z,19.74
2018-10-09T11:49:02.954Z,19.85
2018-10-09T11:50:02.999Z,19.84
2018-10-09T11:51:02.928Z,19.73
2018-10-09T11:52:02.916Z,19.63
2018-10-09T11:53:02.907Z,19.54
2018-10-09T11:54:02.897Z,19.51
2018-10-09T11:55:02.913Z,19.67
2018-10-09T11:56:02.918Z,19.67
2018-10-09T11:57:02.869Z,19.69
2018-10-09T11:58:02.869Z,19.62
2018-10-09T11:59:02.892Z,19.48
2018-10-09T12:00:02.862Z,19.33
2018-10-09T12:01:02.824Z,19.16
2018-10-09T12:02:02.856Z,18.96
2018-10-09T12:03:02.792Z,18.99
2018-10-09T12:04:02.857Z,18.88
2018-10-09T12:05:02.910Z,18.83
2018-10-09T12:06:02.889Z,18.77
2018-10-09T12:07:02.750Z,18.70
2018-10-09T12:08:02.750Z,18.59
2018-10-09T12:09:02.773Z,18.55
2018-10-09T12:10:02.749Z,18.60
2018-10-09T12:11:02.708Z,18.59
2018-10-09T12:12:02.724Z,18.62
2018-10-09T12:13:02.690Z,18.88
2018-10-09T12:14:02.684Z,19.00
2018-10-09T12:15:02.715Z,19.21
2018-10-09T12:16:02.668Z,19.33
2018-10-09T12:17:02.662Z,19.49
2018-10-09T12:18:02.642Z,19.69
2018-10-09T12:19:02.642Z,19.88
2018-10-09T12:20:02.616Z,20.07
2018-10-09T12:21:02.729Z,20.19
2018-10-09T12:22:02.601Z,20.37
2018-10-09T12:23:02.601Z,20.37
2018-10-09T12:24:02.571Z,20.41
2018-10-09T12:25:02.566Z,20.29
2018-10-09T12:26:02.597Z,20.25
2018-10-09T12:27:02.643Z,20.26
2018-10-09T12:28:02.538Z,20.39
2018-10-09T12:29:02.577Z,20.56
2018-10-09T12:30:02.527Z,20.66
2018-10-09T12:31:02.527Z,20.55
2018-10-09T12:32:02.515Z,20.78
2018-10-09T12:33:02.601Z,21.00
2018-10-09T12:34:02.488Z,21.09
2018-10-09T12:35:02.492Z,21.07
2018-10-09T12:36:02.489Z,21.09
2018-10-09T12:37:02.444Z,21.09
2018-10-09T12:38:02.428Z,21.09
2018-10-09T12:39:02.472Z,21.07
2018-10-09T12:40:02.415Z,21.03
2018-10-09T12:41:02.448Z,20.87
2018-10-09T12:42:02.379Z,20.41
2018-10-09T12:43:02.381Z,20.37
2018-10-09T12:44:02.482Z,20.37
2018-10-09T12:45:02.361Z,20.44
2018-10-09T12:46:02.351Z,20.60
2018-10-09T12:47:02.376Z,20.70
2018-10-09T12:48:02.335Z,20.84
2018-10-09T12:49:02.333Z,21.05
2018-10-09T12:50:02.306Z,21.18
2018-10-09T12:51:02.331Z,21.45
2018-10-09T12:52:02.317Z,21.89
2018-10-09T12:53:02.368Z,22.17
2018-10-09T12:54:02.282Z,22.43
2018-10-09T12:55:02.243Z,22.73
2018-10-09T12:56:02.244Z,22.85
2018-10-09T12:57:02.351Z,22.99
2018-10-09T12:58:02.215Z,23.28
2018-10-09T12:59:02.294Z,23.39
2018-10-09T13:00:02.208Z,23.65
2018-10-09T13:01:02.183Z,23.69
2018-10-09T13:02:02.258Z,23.48
2018-10-09T13:03:02.204Z,23.40
2018-10-09T13:04:02.163Z,23.68
2018-10-09T13:05:02.141Z,23.81
2018-10-09T13:06:02.149Z,23.88
2018-10-09T13:07:02.149Z,24.13